sensor_id;sensor_type;location;lat;lon;timestamp;P1;durP1;ratioP1;P2;durP2;ratioP2
14789;SDS011;7486;51.010;10.366;2022-11-20T00:01:34;18.47;;;11.30;;
14789;SDS011;7486;51.010;10.366;2022-11-20T00:03:57;16.80;;;11.37;;
14789;SDS011;7486;51.010;10.366;2022-11-20T00:06:25;19.93;;;12.27;;
14789;SDS011;7486;51.010;10.366;2022-11-20T00:08:57;17.53;;;11.13;;
14789;SDS011;7486;51.010;10.366;2022-11-20T00:11:25;18.10;;;10.87;;
14789;SDS011;7486;51.010;10.366;2022-11-20T00:13:55;14.70;;;10.03;;
14789;SDS011;7486;51.010;10.366;2022-11-20T00:16:24;16.43;;;10.10;;
14789;SDS011;7486;51.010;10.366;2022-11-20T00:18:52;20.77;;;12.20;;
14789;SDS011;7486;51.010;10.366;2022-11-20T00:21:24;18.20;;;11.57;;
14789;SDS011;7486;51.010;10.366;2022-11-20T00:23:54;17.17;;;10.27;;
14789;SDS011;7486;51.010;10.366;2022-11-20T00:26:23;22.20;;;13.70;;
14789;SDS011;7486;51.010;10.366;2022-11-20T00:28:52;22.03;;;13.00;;
14789;SDS011;7486;51.010;10.366;2022-11-20T00:31:21;19.97;;;13.33;;
14789;SDS011;7486;51.010;10.366;2022-11-20T00:33:48;19.27;;;13.00;;
14789;SDS011;7486;51.010;10.366;2022-11-20T00:36:20;24.80;;;14.17;;
14789;SDS011;7486;51.010;10.366;2022-11-20T00:38:52;19.73;;;13.20;;
14789;SDS011;7486;51.010;10.366;2022-11-20T00:41:20;19.13;;;11.97;;
14789;SDS011;7486;51.010;10.366;2022-11-20T00:43:47;18.60;;;11.43;;
14789;SDS011;7486;51.010;10.366;2022-11-20T00:46:15;18.53;;;12.03;;
14789;SDS011;7486;51.010;10.366;2022-11-20T00:48:43;21.67;;;12.90;;
14789;SDS011;7486;51.010;10.366;2022-11-20T00:51:12;21.40;;;12.97;;
14789;SDS011;7486;51.010;10.366;2022-11-20T00:53:40;22.90;;;13.40;;
14789;SDS011;7486;51.010;10.366;2022-11-20T00:56:09;23.13;;;14.10;;
14789;SDS011;7486;51.010;10.366;2022-11-20T00:58:38;23.10;;;13.13;;
14789;SDS011;7486;51.010;10.366;2022-11-20T01:01:07;23.13;;;12.63;;
14789;SDS011;7486;51.010;10.366;2022-11-20T01:03:34;21.23;;;12.33;;
14789;SDS011;7486;51.010;10.366;2022-11-20T01:06:07;23.03;;;12.83;;
14789;SDS011;7486;51.010;10.366;2022-11-20T01:08:35;21.23;;;12.43;;
14789;SDS011;7486;51.010;10.366;2022-11-20T01:11:04;21.93;;;12.30;;
14789;SDS011;7486;51.010;10.366;2022-11-20T01:13:36;23.13;;;12.70;;
14789;SDS011;7486;51.010;10.366;2022-11-20T01:18:30;21.47;;;12.20;;
14789;SDS011;7486;51.010;10.366;2022-11-20T01:21:03;26.77;;;13.97;;
14789;SDS011;7486;51.010;10.366;2022-11-20T01:23:33;23.57;;;13.77;;
14789;SDS011;7486;51.010;10.366;2022-11-20T01:26:02;22.33;;;13.23;;
14789;SDS011;7486;51.010;10.366;2022-11-20T01:28:31;22.07;;;12.53;;
14789;SDS011;7486;51.010;10.366;2022-11-20T01:30:58;22.77;;;12.43;;
14789;SDS011;7486;51.010;10.366;2022-11-20T01:33:26;25.77;;;13.07;;
14789;SDS011;7486;51.010;10.366;2022-11-20T01:35:53;23.00;;;13.10;;
14789;SDS011;7486;51.010;10.366;2022-11-20T01:38:29;22.87;;;13.10;;
14789;SDS011;7486;51.010;10.366;2022-11-20T01:40:55;21.07;;;12.10;;
14789;SDS011;7486;51.010;10.366;2022-11-20T01:43:22;21.00;;;12.63;;
14789;SDS011;7486;51.010;10.366;2022-11-20T01:45:56;20.60;;;12.63;;
14789;SDS011;7486;51.010;10.366;2022-11-20T01:48:28;21.67;;;12.43;;
14789;SDS011;7486;51.010;10.366;2022-11-20T01:51:00;21.43;;;12.23;;
14789;SDS011;7486;51.010;10.366;2022-11-20T01:53:30;21.50;;;11.93;;
14789;SDS011;7486;51.010;10.366;2022-11-20T01:56:01;20.27;;;12.03;;
14789;SDS011;7486;51.010;10.366;2022-11-20T01:58:32;17.67;;;10.93;;
14789;SDS011;7486;51.010;10.366;2022-11-20T02:01:02;17.40;;;10.53;;
14789;SDS011;7486;51.010;10.366;2022-11-20T02:03:30;19.67;;;11.23;;
14789;SDS011;7486;51.010;10.366;2022-11-20T02:08:45;16.93;;;10.63;;
14789;SDS011;7486;51.010;10.366;2022-11-20T02:11:12;16.67;;;10.57;;
14789;SDS011;7486;51.010;10.366;2022-11-20T02:13:39;17.67;;;11.03;;
14789;SDS011;7486;51.010;10.366;2022-11-20T02:16:13;18.60;;;10.40;;
14789;SDS011;7486;51.010;10.366;2022-11-20T02:18:40;17.23;;;10.67;;
14789;SDS011;7486;51.010;10.366;2022-11-20T02:21:23;18.03;;;10.93;;
14789;SDS011;7486;51.010;10.366;2022-11-20T02:26:52;17.57;;;10.73;;
14789;SDS011;7486;51.010;10.366;2022-11-20T02:29:32;16.13;;;10.57;;
14789;SDS011;7486;51.010;10.366;2022-11-20T02:39:37;16.23;;;9.87;;
14789;SDS011;7486;51.010;10.366;2022-11-20T02:42:06;18.43;;;10.30;;
14789;SDS011;7486;51.010;10.366;2022-11-20T02:44:32;17.57;;;10.37;;
14789;SDS011;7486;51.010;10.366;2022-11-20T02:46:59;16.60;;;10.23;;
14789;SDS011;7486;51.010;10.366;2022-11-20T02:49:26;18.07;;;10.97;;
14789;SDS011;7486;51.010;10.366;2022-11-20T02:51:52;17.13;;;10.43;;
14789;SDS011;7486;51.010;10.366;2022-11-20T02:54:19;16.63;;;10.47;;
14789;SDS011;7486;51.010;10.366;2022-11-20T02:56:46;15.67;;;9.93;;
14789;SDS011;7486;51.010;10.366;2022-11-20T02:59:12;18.67;;;10.93;;
14789;SDS011;7486;51.010;10.366;2022-11-20T03:01:39;18.70;;;11.37;;
14789;SDS011;7486;51.010;10.366;2022-11-20T03:04:06;16.50;;;10.40;;
14789;SDS011;7486;51.010;10.366;2022-11-20T03:06:32;18.53;;;11.50;;
14789;SDS011;7486;51.010;10.366;2022-11-20T03:08:59;16.67;;;10.00;;
14789;SDS011;7486;51.010;10.366;2022-11-20T03:11:26;17.13;;;10.63;;
14789;SDS011;7486;51.010;10.366;2022-11-20T03:13:53;17.17;;;10.67;;
14789;SDS011;7486;51.010;10.366;2022-11-20T03:16:20;17.93;;;10.33;;
14789;SDS011;7486;51.010;10.366;2022-11-20T03:18:48;19.00;;;11.57;;
14789;SDS011;7486;51.010;10.366;2022-11-20T03:21:18;20.70;;;11.77;;
14789;SDS011;7486;51.010;10.366;2022-11-20T03:23:45;18.07;;;10.87;;
14789;SDS011;7486;51.010;10.366;2022-11-20T03:26:20;20.10;;;11.23;;
14789;SDS011;7486;51.010;10.366;2022-11-20T03:28:52;21.30;;;11.57;;
14789;SDS011;7486;51.010;10.366;2022-11-20T03:31:27;19.37;;;11.50;;
14789;SDS011;7486;51.010;10.366;2022-11-20T03:33:56;19.73;;;11.37;;
14789;SDS011;7486;51.010;10.366;2022-11-20T03:36:23;19.50;;;12.30;;
14789;SDS011;7486;51.010;10.366;2022-11-20T03:38:52;19.53;;;11.43;;
14789;SDS011;7486;51.010;10.366;2022-11-20T03:41:20;19.80;;;11.63;;
14789;SDS011;7486;51.010;10.366;2022-11-20T03:43:50;19.33;;;11.97;;
14789;SDS011;7486;51.010;10.366;2022-11-20T03:46:21;19.97;;;12.07;;
14789;SDS011;7486;51.010;10.366;2022-11-20T03:48:48;19.60;;;12.53;;
14789;SDS011;7486;51.010;10.366;2022-11-20T03:51:21;19.97;;;11.57;;
14789;SDS011;7486;51.010;10.366;2022-11-20T03:53:51;21.47;;;12.10;;
14789;SDS011;7486;51.010;10.366;2022-11-20T03:56:20;20.27;;;11.97;;
14789;SDS011;7486;51.010;10.366;2022-11-20T03:58:49;21.10;;;12.00;;
14789;SDS011;7486;51.010;10.366;2022-11-20T04:01:17;20.70;;;12.23;;
14789;SDS011;7486;51.010;10.366;2022-11-20T04:03:46;21.77;;;12.77;;
14789;SDS011;7486;51.010;10.366;2022-11-20T04:06:14;21.03;;;12.00;;
14789;SDS011;7486;51.010;10.366;2022-11-20T04:08:43;20.63;;;12.37;;
14789;SDS011;7486;51.010;10.366;2022-11-20T04:11:16;20.07;;;12.13;;
14789;SDS011;7486;51.010;10.366;2022-11-20T04:14:03;20.00;;;11.90;;
14789;SDS011;7486;51.010;10.366;2022-11-20T04:16:34;22.23;;;12.57;;
14789;SDS011;7486;51.010;10.366;2022-11-20T04:19:03;20.13;;;11.63;;
14789;SDS011;7486;51.010;10.366;2022-11-20T04:21:32;22.23;;;12.50;;
14789;SDS011;7486;51.010;10.366;2022-11-20T04:23:59;20.97;;;12.20;;
14789;SDS011;7486;51.010;10.366;2022-11-20T04:26:26;21.73;;;12.83;;
14789;SDS011;7486;51.010;10.366;2022-11-20T04:28:55;23.67;;;13.03;;
14789;SDS011;7486;51.010;10.366;2022-11-20T04:31:24;20.97;;;12.20;;
14789;SDS011;7486;51.010;10.366;2022-11-20T04:33:55;20.73;;;12.33;;
14789;SDS011;7486;51.010;10.366;2022-11-20T04:36:25;21.87;;;12.67;;
14789;SDS011;7486;51.010;10.366;2022-11-20T04:38:53;22.43;;;12.77;;
14789;SDS011;7486;51.010;10.366;2022-11-20T04:41:26;20.93;;;11.90;;
14789;SDS011;7486;51.010;10.366;2022-11-20T04:43:56;23.37;;;13.30;;
14789;SDS011;7486;51.010;10.366;2022-11-20T04:46:25;22.10;;;13.27;;
14789;SDS011;7486;51.010;10.366;2022-11-20T04:48:53;21.40;;;12.23;;
14789;SDS011;7486;51.010;10.366;2022-11-20T04:51:19;23.63;;;12.87;;
14789;SDS011;7486;51.010;10.366;2022-11-20T04:53:46;24.73;;;13.23;;
14789;SDS011;7486;51.010;10.366;2022-11-20T04:56:13;24.13;;;13.60;;
14789;SDS011;7486;51.010;10.366;2022-11-20T04:58:40;24.57;;;13.40;;
14789;SDS011;7486;51.010;10.366;2022-11-20T05:01:09;23.23;;;13.73;;
14789;SDS011;7486;51.010;10.366;2022-11-20T05:03:39;26.23;;;14.30;;
14789;SDS011;7486;51.010;10.366;2022-11-20T05:06:08;27.03;;;14.10;;
14789;SDS011;7486;51.010;10.366;2022-11-20T05:08:36;25.60;;;14.57;;
14789;SDS011;7486;51.010;10.366;2022-11-20T05:11:07;26.50;;;13.83;;
14789;SDS011;7486;51.010;10.366;2022-11-20T05:13:35;27.90;;;14.47;;
14789;SDS011;7486;51.010;10.366;2022-11-20T05:16:06;23.67;;;14.00;;
14789;SDS011;7486;51.010;10.366;2022-11-20T05:18:35;26.57;;;13.50;;
14789;SDS011;7486;51.010;10.366;2022-11-20T05:21:04;26.47;;;15.03;;
14789;SDS011;7486;51.010;10.366;2022-11-20T05:23:32;27.80;;;14.80;;
14789;SDS011;7486;51.010;10.366;2022-11-20T05:25:59;24.37;;;13.53;;
14789;SDS011;7486;51.010;10.366;2022-11-20T05:28:27;27.20;;;14.60;;
14789;SDS011;7486;51.010;10.366;2022-11-20T05:30:55;27.67;;;13.90;;
14789;SDS011;7486;51.010;10.366;2022-11-20T05:33:22;25.27;;;13.90;;
14789;SDS011;7486;51.010;10.366;2022-11-20T05:35:49;22.97;;;13.97;;
14789;SDS011;7486;51.010;10.366;2022-11-20T05:46:01;25.83;;;14.20;;
14789;SDS011;7486;51.010;10.366;2022-11-20T05:48:50;26.50;;;14.37;;
14789;SDS011;7486;51.010;10.366;2022-11-20T05:51:17;27.73;;;14.50;;
14789;SDS011;7486;51.010;10.366;2022-11-20T05:53:44;25.70;;;13.90;;
14789;SDS011;7486;51.010;10.366;2022-11-20T05:56:18;22.97;;;13.27;;
14789;SDS011;7486;51.010;10.366;2022-11-20T05:58:46;24.97;;;14.37;;
14789;SDS011;7486;51.010;10.366;2022-11-20T06:03:42;28.60;;;14.93;;
14789;SDS011;7486;51.010;10.366;2022-11-20T06:06:10;42.93;;;20.13;;
14789;SDS011;7486;51.010;10.366;2022-11-20T06:08:36;53.17;;;24.63;;
14789;SDS011;7486;51.010;10.366;2022-11-20T06:11:04;35.80;;;18.83;;
14789;SDS011;7486;51.010;10.366;2022-11-20T06:13:32;29.33;;;15.37;;
14789;SDS011;7486;51.010;10.366;2022-11-20T06:16:02;28.43;;;14.53;;
14789;SDS011;7486;51.010;10.366;2022-11-20T06:18:29;28.23;;;15.37;;
14789;SDS011;7486;51.010;10.366;2022-11-20T06:21:00;28.23;;;15.20;;
14789;SDS011;7486;51.010;10.366;2022-11-20T06:23:32;30.27;;;16.10;;
14789;SDS011;7486;51.010;10.366;2022-11-20T06:26:03;26.77;;;15.33;;
14789;SDS011;7486;51.010;10.366;2022-11-20T06:28:31;29.60;;;16.73;;
14789;SDS011;7486;51.010;10.366;2022-11-20T06:30:58;27.13;;;15.10;;
14789;SDS011;7486;51.010;10.366;2022-11-20T06:33:25;29.87;;;15.17;;
14789;SDS011;7486;51.010;10.366;2022-11-20T06:35:51;28.93;;;14.83;;
14789;SDS011;7486;51.010;10.366;2022-11-20T06:38:26;27.33;;;14.57;;
14789;SDS011;7486;51.010;10.366;2022-11-20T06:40:53;29.10;;;15.17;;
14789;SDS011;7486;51.010;10.366;2022-11-20T06:43:21;31.90;;;15.47;;
14789;SDS011;7486;51.010;10.366;2022-11-20T06:45:55;27.57;;;14.37;;
14789;SDS011;7486;51.010;10.366;2022-11-20T06:48:23;31.83;;;15.70;;
14789;SDS011;7486;51.010;10.366;2022-11-20T06:50:50;29.83;;;15.20;;
14789;SDS011;7486;51.010;10.366;2022-11-20T06:53:16;29.30;;;15.17;;
14789;SDS011;7486;51.010;10.366;2022-11-20T06:55:44;30.60;;;15.67;;
14789;SDS011;7486;51.010;10.366;2022-11-20T06:58:12;26.13;;;15.17;;
14789;SDS011;7486;51.010;10.366;2022-11-20T07:00:40;27.83;;;15.13;;
14789;SDS011;7486;51.010;10.366;2022-11-20T07:03:08;29.60;;;14.87;;
14789;SDS011;7486;51.010;10.366;2022-11-20T07:05:36;30.17;;;15.33;;
14789;SDS011;7486;51.010;10.366;2022-11-20T07:08:03;27.83;;;14.17;;
14789;SDS011;7486;51.010;10.366;2022-11-20T07:10:31;28.27;;;14.50;;
14789;SDS011;7486;51.010;10.366;2022-11-20T07:12:58;28.40;;;14.67;;
14789;SDS011;7486;51.010;10.366;2022-11-20T07:15:24;31.67;;;16.60;;
14789;SDS011;7486;51.010;10.366;2022-11-20T07:17:52;31.10;;;16.10;;
14789;SDS011;7486;51.010;10.366;2022-11-20T07:20:18;28.30;;;16.27;;
14789;SDS011;7486;51.010;10.366;2022-11-20T07:22:45;29.53;;;14.97;;
14789;SDS011;7486;51.010;10.366;2022-11-20T07:25:12;27.87;;;14.40;;
14789;SDS011;7486;51.010;10.366;2022-11-20T07:27:39;22.73;;;13.30;;
14789;SDS011;7486;51.010;10.366;2022-11-20T07:30:05;24.77;;;14.53;;
14789;SDS011;7486;51.010;10.366;2022-11-20T07:32:32;26.63;;;15.17;;
14789;SDS011;7486;51.010;10.366;2022-11-20T07:34:59;28.63;;;14.97;;
14789;SDS011;7486;51.010;10.366;2022-11-20T07:37:26;29.07;;;15.60;;
14789;SDS011;7486;51.010;10.366;2022-11-20T07:39:52;29.77;;;16.03;;
14789;SDS011;7486;51.010;10.366;2022-11-20T07:42:19;27.73;;;14.93;;
14789;SDS011;7486;51.010;10.366;2022-11-20T07:44:49;29.50;;;15.77;;
14789;SDS011;7486;51.010;10.366;2022-11-20T07:47:15;27.63;;;15.00;;
14789;SDS011;7486;51.010;10.366;2022-11-20T07:49:42;30.87;;;15.20;;
14789;SDS011;7486;51.010;10.366;2022-11-20T07:52:08;29.47;;;15.23;;
14789;SDS011;7486;51.010;10.366;2022-11-20T07:54:35;33.83;;;15.03;;
14789;SDS011;7486;51.010;10.366;2022-11-20T07:57:02;29.07;;;15.83;;
14789;SDS011;7486;51.010;10.366;2022-11-20T07:59:28;29.97;;;15.70;;
14789;SDS011;7486;51.010;10.366;2022-11-20T08:01:55;24.67;;;15.33;;
14789;SDS011;7486;51.010;10.366;2022-11-20T08:04:22;28.73;;;16.57;;
14789;SDS011;7486;51.010;10.366;2022-11-20T08:06:49;28.53;;;16.43;;
14789;SDS011;7486;51.010;10.366;2022-11-20T08:09:15;32.43;;;16.17;;
14789;SDS011;7486;51.010;10.366;2022-11-20T08:11:42;31.10;;;15.40;;
14789;SDS011;7486;51.010;10.366;2022-11-20T08:14:09;30.77;;;17.10;;
14789;SDS011;7486;51.010;10.366;2022-11-20T08:16:35;30.97;;;16.50;;
14789;SDS011;7486;51.010;10.366;2022-11-20T08:19:02;32.57;;;17.30;;
14789;SDS011;7486;51.010;10.366;2022-11-20T08:21:29;33.50;;;16.97;;
14789;SDS011;7486;51.010;10.366;2022-11-20T08:24:03;30.97;;;17.57;;
14789;SDS011;7486;51.010;10.366;2022-11-20T08:26:30;26.47;;;15.03;;
14789;SDS011;7486;51.010;10.366;2022-11-20T08:28:58;27.33;;;15.20;;
14789;SDS011;7486;51.010;10.366;2022-11-20T08:31:25;28.77;;;15.60;;
14789;SDS011;7486;51.010;10.366;2022-11-20T08:33:53;28.33;;;15.53;;
14789;SDS011;7486;51.010;10.366;2022-11-20T08:36:20;27.00;;;15.67;;
14789;SDS011;7486;51.010;10.366;2022-11-20T08:38:48;25.90;;;14.73;;
14789;SDS011;7486;51.010;10.366;2022-11-20T08:41:16;25.37;;;15.10;;
14789;SDS011;7486;51.010;10.366;2022-11-20T08:43:43;26.17;;;15.83;;
14789;SDS011;7486;51.010;10.366;2022-11-20T08:46:09;26.30;;;15.60;;
14789;SDS011;7486;51.010;10.366;2022-11-20T08:48:36;27.93;;;16.33;;
14789;SDS011;7486;51.010;10.366;2022-11-20T08:51:03;29.90;;;16.13;;
14789;SDS011;7486;51.010;10.366;2022-11-20T08:53:30;26.47;;;15.47;;
14789;SDS011;7486;51.010;10.366;2022-11-20T08:55:56;26.17;;;14.27;;
14789;SDS011;7486;51.010;10.366;2022-11-20T08:58:24;24.87;;;15.10;;
14789;SDS011;7486;51.010;10.366;2022-11-20T09:00:52;49.03;;;31.97;;
14789;SDS011;7486;51.010;10.366;2022-11-20T09:03:19;31.90;;;20.87;;
14789;SDS011;7486;51.010;10.366;2022-11-20T09:05:45;33.67;;;21.47;;
14789;SDS011;7486;51.010;10.366;2022-11-20T09:08:12;33.23;;;20.03;;
14789;SDS011;7486;51.010;10.366;2022-11-20T09:10:39;25.83;;;14.77;;
14789;SDS011;7486;51.010;10.366;2022-11-20T09:13:06;39.30;;;24.87;;
14789;SDS011;7486;51.010;10.366;2022-11-20T09:15:33;33.60;;;25.90;;
14789;SDS011;7486;51.010;10.366;2022-11-20T09:18:00;48.37;;;34.37;;
14789;SDS011;7486;51.010;10.366;2022-11-20T09:20:29;51.00;;;39.67;;
14789;SDS011;7486;51.010;10.366;2022-11-20T09:22:57;44.67;;;35.60;;
14789;SDS011;7486;51.010;10.366;2022-11-20T09:25:24;28.23;;;19.37;;
14789;SDS011;7486;51.010;10.366;2022-11-20T09:27:58;28.47;;;19.97;;
14789;SDS011;7486;51.010;10.366;2022-11-20T09:30:25;31.77;;;23.50;;
14789;SDS011;7486;51.010;10.366;2022-11-20T09:32:53;28.00;;;17.40;;
14789;SDS011;7486;51.010;10.366;2022-11-20T09:35:19;29.40;;;17.70;;
14789;SDS011;7486;51.010;10.366;2022-11-20T09:37:46;26.17;;;15.40;;
14789;SDS011;7486;51.010;10.366;2022-11-20T09:40:26;24.23;;;14.33;;
14789;SDS011;7486;51.010;10.366;2022-11-20T09:56:41;32.37;;;17.20;;
14789;SDS011;7486;51.010;10.366;2022-11-20T09:59:14;31.27;;;17.73;;
14789;SDS011;7486;51.010;10.366;2022-11-20T10:07:30;34.17;;;21.43;;
14789;SDS011;7486;51.010;10.366;2022-11-20T10:10:15;36.87;;;23.83;;
14789;SDS011;7486;51.010;10.366;2022-11-20T10:29:15;29.30;;;16.73;;
14789;SDS011;7486;51.010;10.366;2022-11-20T10:31:51;27.63;;;16.57;;
14789;SDS011;7486;51.010;10.366;2022-11-20T10:34:38;28.87;;;15.67;;
14789;SDS011;7486;51.010;10.366;2022-11-20T10:37:14;27.70;;;16.30;;
14789;SDS011;7486;51.010;10.366;2022-11-20T10:39:50;30.50;;;17.13;;
14789;SDS011;7486;51.010;10.366;2022-11-20T10:42:39;31.47;;;17.63;;
14789;SDS011;7486;51.010;10.366;2022-11-20T10:47:52;33.00;;;18.50;;
14789;SDS011;7486;51.010;10.366;2022-11-20T10:50:22;35.20;;;20.23;;
14789;SDS011;7486;51.010;10.366;2022-11-20T10:55:45;34.07;;;17.67;;
14789;SDS011;7486;51.010;10.366;2022-11-20T10:58:19;35.23;;;19.07;;
14789;SDS011;7486;51.010;10.366;2022-11-20T11:01:31;33.33;;;17.07;;
14789;SDS011;7486;51.010;10.366;2022-11-20T11:03:50;34.50;;;17.80;;
14789;SDS011;7486;51.010;10.366;2022-11-20T11:06:25;30.60;;;15.80;;
14789;SDS011;7486;51.010;10.366;2022-11-20T11:09:00;33.50;;;17.13;;
14789;SDS011;7486;51.010;10.366;2022-11-20T11:11:35;30.37;;;17.10;;
14789;SDS011;7486;51.010;10.366;2022-11-20T11:14:08;30.67;;;16.33;;
14789;SDS011;7486;51.010;10.366;2022-11-20T11:16:40;33.93;;;17.17;;
14789;SDS011;7486;51.010;10.366;2022-11-20T11:19:16;32.43;;;17.43;;
14789;SDS011;7486;51.010;10.366;2022-11-20T11:21:46;29.87;;;17.23;;
14789;SDS011;7486;51.010;10.366;2022-11-20T11:24:21;31.17;;;15.67;;
14789;SDS011;7486;51.010;10.366;2022-11-20T11:27:11;30.63;;;16.73;;
14789;SDS011;7486;51.010;10.366;2022-11-20T11:29:43;31.50;;;17.57;;
14789;SDS011;7486;51.010;10.366;2022-11-20T11:32:14;70.03;;;37.47;;
14789;SDS011;7486;51.010;10.366;2022-11-20T11:34:44;119.07;;;57.30;;
14789;SDS011;7486;51.010;10.366;2022-11-20T11:37:17;79.90;;;37.93;;
14789;SDS011;7486;51.010;10.366;2022-11-20T11:39:47;35.17;;;19.57;;
14789;SDS011;7486;51.010;10.366;2022-11-20T11:42:34;30.30;;;17.20;;
14789;SDS011;7486;51.010;10.366;2022-11-20T11:45:11;32.90;;;19.03;;
14789;SDS011;7486;51.010;10.366;2022-11-20T12:06:30;29.90;;;16.90;;
14789;SDS011;7486;51.010;10.366;2022-11-20T12:09:01;31.13;;;16.57;;
14789;SDS011;7486;51.010;10.366;2022-11-20T12:14:02;29.30;;;16.47;;
14789;SDS011;7486;51.010;10.366;2022-11-20T12:16:39;33.13;;;17.63;;
14789;SDS011;7486;51.010;10.366;2022-11-20T12:19:08;30.07;;;16.80;;
14789;SDS011;7486;51.010;10.366;2022-11-20T12:40:17;31.73;;;17.63;;
14789;SDS011;7486;51.010;10.366;2022-11-20T12:42:47;31.80;;;16.57;;
14789;SDS011;7486;51.010;10.366;2022-11-20T13:00:26;34.33;;;17.00;;
14789;SDS011;7486;51.010;10.366;2022-11-20T13:07:53;29.20;;;15.90;;
14789;SDS011;7486;51.010;10.366;2022-11-20T13:13:00;30.67;;;17.10;;
14789;SDS011;7486;51.010;10.366;2022-11-20T13:18:11;33.63;;;17.63;;
14789;SDS011;7486;51.010;10.366;2022-11-20T13:20:41;33.97;;;17.20;;
14789;SDS011;7486;51.010;10.366;2022-11-20T13:23:10;35.10;;;17.27;;
14789;SDS011;7486;51.010;10.366;2022-11-20T13:25:37;32.80;;;16.57;;
14789;SDS011;7486;51.010;10.366;2022-11-20T13:30:53;35.77;;;17.47;;
14789;SDS011;7486;51.010;10.366;2022-11-20T13:33:33;29.80;;;15.87;;
14789;SDS011;7486;51.010;10.366;2022-11-20T13:36:06;29.93;;;15.60;;
14789;SDS011;7486;51.010;10.366;2022-11-20T13:38:57;29.43;;;15.93;;
14789;SDS011;7486;51.010;10.366;2022-11-20T13:41:29;30.27;;;15.93;;
14789;SDS011;7486;51.010;10.366;2022-11-20T13:46:53;30.33;;;15.40;;
14789;SDS011;7486;51.010;10.366;2022-11-20T13:49:25;30.03;;;16.13;;
14789;SDS011;7486;51.010;10.366;2022-11-20T13:52:03;30.20;;;15.67;;
14789;SDS011;7486;51.010;10.366;2022-11-20T14:02:47;25.10;;;13.77;;
14789;SDS011;7486;51.010;10.366;2022-11-20T14:05:39;27.67;;;14.13;;
14789;SDS011;7486;51.010;10.366;2022-11-20T14:08:14;26.00;;;14.10;;
14789;SDS011;7486;51.010;10.366;2022-11-20T14:11:01;27.13;;;14.93;;
14789;SDS011;7486;51.010;10.366;2022-11-20T14:13:53;25.10;;;13.90;;
14789;SDS011;7486;51.010;10.366;2022-11-20T14:16:23;26.60;;;13.83;;
14789;SDS011;7486;51.010;10.366;2022-11-20T14:18:50;26.63;;;15.07;;
14789;SDS011;7486;51.010;10.366;2022-11-20T14:21:24;22.33;;;13.03;;
14789;SDS011;7486;51.010;10.366;2022-11-20T14:24:05;23.20;;;12.80;;
14789;SDS011;7486;51.010;10.366;2022-11-20T14:26:33;23.37;;;13.07;;
14789;SDS011;7486;51.010;10.366;2022-11-20T14:29:00;23.07;;;12.93;;
14789;SDS011;7486;51.010;10.366;2022-11-20T14:31:27;21.27;;;11.70;;
14789;SDS011;7486;51.010;10.366;2022-11-20T14:33:54;19.60;;;11.60;;
14789;SDS011;7486;51.010;10.366;2022-11-20T14:36:22;20.83;;;12.20;;
14789;SDS011;7486;51.010;10.366;2022-11-20T14:38:51;21.53;;;12.07;;
14789;SDS011;7486;51.010;10.366;2022-11-20T14:41:20;23.10;;;12.97;;
14789;SDS011;7486;51.010;10.366;2022-11-20T14:43:55;23.73;;;13.00;;
14789;SDS011;7486;51.010;10.366;2022-11-20T14:46:26;19.53;;;11.30;;
14789;SDS011;7486;51.010;10.366;2022-11-20T14:48:55;18.67;;;10.47;;
14789;SDS011;7486;51.010;10.366;2022-11-20T14:59:26;14.27;;;9.07;;
14789;SDS011;7486;51.010;10.366;2022-11-20T15:01:58;16.90;;;9.77;;
14789;SDS011;7486;51.010;10.366;2022-11-20T15:04:30;16.57;;;9.63;;
14789;SDS011;7486;51.010;10.366;2022-11-20T15:06:58;16.63;;;10.33;;
14789;SDS011;7486;51.010;10.366;2022-11-20T15:09:25;15.33;;;10.07;;
14789;SDS011;7486;51.010;10.366;2022-11-20T15:11:59;16.87;;;11.17;;
14789;SDS011;7486;51.010;10.366;2022-11-20T15:14:28;17.23;;;10.50;;
14789;SDS011;7486;51.010;10.366;2022-11-20T15:16:56;14.80;;;9.40;;
14789;SDS011;7486;51.010;10.366;2022-11-20T15:19:24;16.73;;;10.57;;
14789;SDS011;7486;51.010;10.366;2022-11-20T15:21:52;15.47;;;9.80;;
14789;SDS011;7486;51.010;10.366;2022-11-20T15:24:19;19.20;;;10.73;;
14789;SDS011;7486;51.010;10.366;2022-11-20T15:26:47;17.13;;;10.57;;
14789;SDS011;7486;51.010;10.366;2022-11-20T15:29:14;18.23;;;10.40;;
14789;SDS011;7486;51.010;10.366;2022-11-20T15:31:42;16.60;;;10.23;;
14789;SDS011;7486;51.010;10.366;2022-11-20T15:34:12;16.37;;;10.47;;
14789;SDS011;7486;51.010;10.366;2022-11-20T15:36:40;18.97;;;10.87;;
14789;SDS011;7486;51.010;10.366;2022-11-20T15:39:07;16.90;;;10.70;;
14789;SDS011;7486;51.010;10.366;2022-11-20T15:41:35;18.30;;;10.50;;
14789;SDS011;7486;51.010;10.366;2022-11-20T15:44:03;19.93;;;12.40;;
14789;SDS011;7486;51.010;10.366;2022-11-20T15:46:31;21.03;;;11.83;;
14789;SDS011;7486;51.010;10.366;2022-11-20T15:48:59;18.40;;;11.70;;
14789;SDS011;7486;51.010;10.366;2022-11-20T15:51:39;19.03;;;11.50;;
14789;SDS011;7486;51.010;10.366;2022-11-20T15:54:16;19.80;;;12.27;;
14789;SDS011;7486;51.010;10.366;2022-11-20T15:56:46;17.73;;;11.17;;
14789;SDS011;7486;51.010;10.366;2022-11-20T15:59:16;17.63;;;10.57;;
14789;SDS011;7486;51.010;10.366;2022-11-20T16:01:50;15.37;;;10.03;;
14789;SDS011;7486;51.010;10.366;2022-11-20T16:04:19;18.00;;;10.07;;
14789;SDS011;7486;51.010;10.366;2022-11-20T16:06:47;16.20;;;10.10;;
14789;SDS011;7486;51.010;10.366;2022-11-20T16:09:14;15.53;;;10.00;;
14789;SDS011;7486;51.010;10.366;2022-11-20T16:11:42;18.17;;;10.43;;
14789;SDS011;7486;51.010;10.366;2022-11-20T16:14:12;18.07;;;10.83;;
14789;SDS011;7486;51.010;10.366;2022-11-20T16:16:41;19.37;;;11.37;;
14789;SDS011;7486;51.010;10.366;2022-11-20T16:19:10;18.23;;;10.57;;
14789;SDS011;7486;51.010;10.366;2022-11-20T16:21:39;17.43;;;11.30;;
14789;SDS011;7486;51.010;10.366;2022-11-20T16:24:10;19.80;;;11.97;;
14789;SDS011;7486;51.010;10.366;2022-11-20T16:26:39;19.07;;;11.90;;
14789;SDS011;7486;51.010;10.366;2022-11-20T16:29:10;18.43;;;11.10;;
14789;SDS011;7486;51.010;10.366;2022-11-20T16:31:38;16.87;;;11.13;;
14789;SDS011;7486;51.010;10.366;2022-11-20T16:34:06;19.17;;;11.73;;
14789;SDS011;7486;51.010;10.366;2022-11-20T16:36:39;20.43;;;11.90;;
14789;SDS011;7486;51.010;10.366;2022-11-20T16:39:08;20.87;;;11.93;;
14789;SDS011;7486;51.010;10.366;2022-11-20T16:41:34;22.07;;;11.87;;
14789;SDS011;7486;51.010;10.366;2022-11-20T16:44:02;22.20;;;12.53;;
14789;SDS011;7486;51.010;10.366;2022-11-20T16:46:32;21.90;;;13.37;;
14789;SDS011;7486;51.010;10.366;2022-11-20T16:49:00;24.70;;;14.10;;
14789;SDS011;7486;51.010;10.366;2022-11-20T16:51:29;22.53;;;13.03;;
14789;SDS011;7486;51.010;10.366;2022-11-20T16:54:03;21.20;;;13.33;;
14789;SDS011;7486;51.010;10.366;2022-11-20T16:56:31;23.67;;;14.20;;
14789;SDS011;7486;51.010;10.366;2022-11-20T16:58:58;24.37;;;13.97;;
14789;SDS011;7486;51.010;10.366;2022-11-20T17:01:26;24.20;;;14.47;;
14789;SDS011;7486;51.010;10.366;2022-11-20T17:03:55;25.20;;;14.50;;
14789;SDS011;7486;51.010;10.366;2022-11-20T17:06:25;25.00;;;14.00;;
14789;SDS011;7486;51.010;10.366;2022-11-20T17:08:57;24.47;;;14.53;;
14789;SDS011;7486;51.010;10.366;2022-11-20T17:11:24;24.67;;;14.40;;